createdAt,value
2023-05-14T00:00:49.485Z,7.85
2023-05-14T00:03:16.982Z,7.83
2023-05-14T00:05:44.368Z,7.77
2023-05-14T00:08:11.663Z,7.81
2023-05-14T00:10:38.964Z,7.81
2023-05-14T00:13:06.203Z,7.86
2023-05-14T00:15:34.565Z,7.90
2023-05-14T00:18:02.046Z,7.83
2023-05-14T00:20:29.340Z,7.73
2023-05-14T00:22:56.655Z,7.80
2023-05-14T00:25:23.965Z,7.87
2023-05-14T00:27:51.260Z,7.80
2023-05-14T00:30:18.601Z,7.69
2023-05-14T00:32:45.997Z,7.78
2023-05-14T00:35:13.335Z,7.79
2023-05-14T00:37:40.579Z,7.77
2023-05-14T00:40:08.744Z,7.73
2023-05-14T00:42:36.066Z,7.74
2023-05-14T00:45:03.464Z,7.75
2023-05-14T00:47:30.799Z,7.72
2023-05-14T00:49:58.096Z,7.68
2023-05-14T00:52:25.427Z,7.63
2023-05-14T00:54:52.721Z,7.66
2023-05-14T00:57:20.024Z,7.50
2023-05-14T00:59:47.311Z,7.69
2023-05-14T01:02:14.594Z,7.59
2023-05-14T01:04:41.860Z,7.48
2023-05-14T01:07:27.730Z,7.51
2023-05-14T01:10:04.182Z,7.50
2023-05-14T01:12:43.953Z,7.53
2023-05-14T01:15:12.762Z,7.55
2023-05-14T01:17:46.298Z,7.60
2023-05-14T01:20:13.590Z,7.54
2023-05-14T01:22:40.859Z,7.52
2023-05-14T01:25:08.655Z,7.54
2023-05-14T01:27:40.439Z,7.47
2023-05-14T01:30:15.186Z,7.43
2023-05-14T01:32:42.459Z,7.42
2023-05-14T01:35:09.850Z,7.39
2023-05-14T01:37:37.176Z,7.19
2023-05-14T01:40:05.738Z,7.23
2023-05-14T01:42:32.976Z,7.30
2023-05-14T01:45:00.262Z,7.17
2023-05-14T01:47:27.541Z,7.25
2023-05-14T01:49:55.089Z,7.25
2023-05-14T01:52:22.407Z,7.23
2023-05-14T01:54:50.036Z,7.29
2023-05-14T01:57:17.312Z,7.19
2023-05-14T01:59:44.587Z,7.11
2023-05-14T02:02:11.922Z,7.18
2023-05-14T02:04:39.239Z,7.13
2023-05-14T02:07:06.493Z,7.14
2023-05-14T02:09:33.811Z,7.21
2023-05-14T02:12:01.324Z,7.15
2023-05-14T02:14:28.565Z,7.13
2023-05-14T02:16:56.336Z,7.11
2023-05-14T02:19:24.352Z,7.01
2023-05-14T02:21:51.678Z,7.03
2023-05-14T02:24:19.007Z,6.94
2023-05-14T02:26:46.254Z,6.93
2023-05-14T02:29:16.504Z,6.92
2023-05-14T02:31:43.861Z,6.90
2023-05-14T02:34:11.177Z,6.90
2023-05-14T02:36:38.438Z,6.84
2023-05-14T02:39:05.764Z,6.82
2023-05-14T02:41:33.161Z,6.75
2023-05-14T02:44:00.489Z,6.94
2023-05-14T02:46:27.829Z,6.85
2023-05-14T02:48:55.683Z,6.85
2023-05-14T02:51:23.057Z,6.82
2023-05-14T02:53:50.468Z,6.81
2023-05-14T02:56:17.699Z,6.82
2023-05-14T02:58:44.963Z,6.79
2023-05-14T03:01:12.446Z,6.70
2023-05-14T03:03:40.205Z,6.59
2023-05-14T03:06:08.154Z,6.82
2023-05-14T03:08:35.427Z,6.85
2023-05-14T03:11:02.944Z,6.94
2023-05-14T03:13:30.216Z,6.95
2023-05-14T03:15:57.515Z,7.00
2023-05-14T03:18:24.899Z,7.10
2023-05-14T03:20:52.328Z,7.17
2023-05-14T03:23:19.614Z,7.10
2023-05-14T03:25:46.994Z,7.18
2023-05-14T03:28:14.275Z,7.14
2023-05-14T03:30:41.642Z,7.13
2023-05-14T03:33:10.343Z,7.27
2023-05-14T03:35:37.653Z,7.27
2023-05-14T03:38:04.898Z,7.23
2023-05-14T03:40:34.861Z,7.33
2023-05-14T03:43:02.141Z,7.41
2023-05-14T03:45:30.475Z,7.22
2023-05-14T03:47:59.461Z,7.22
2023-05-14T03:50:27.262Z,7.19
2023-05-14T03:52:55.091Z,7.14
2023-05-14T03:55:22.491Z,7.13
2023-05-14T03:57:49.806Z,7.15
2023-05-14T04:00:17.408Z,7.31
2023-05-14T04:02:44.758Z,7.36
2023-05-14T04:05:12.126Z,7.45
2023-05-14T04:07:39.375Z,7.55
2023-05-14T04:10:07.202Z,7.70
2023-05-14T04:12:36.303Z,7.77
2023-05-14T04:15:04.918Z,7.84
2023-05-14T04:17:33.487Z,8.04
2023-05-14T04:20:02.145Z,8.20
2023-05-14T04:22:29.412Z,8.17
2023-05-14T04:24:56.664Z,8.09
2023-05-14T04:27:23.934Z,8.19
2023-05-14T04:29:51.209Z,8.33
2023-05-14T04:32:18.527Z,8.45
2023-05-14T04:34:46.922Z,8.49
2023-05-14T04:37:14.255Z,8.52
2023-05-14T04:39:41.519Z,8.70
2023-05-14T04:42:08.759Z,8.85
2023-05-14T04:44:36.742Z,9.04
2023-05-14T04:47:04.509Z,9.19
2023-05-14T04:49:31.963Z,9.34
2023-05-14T04:51:59.466Z,9.51
2023-05-14T04:54:26.856Z,9.63
2023-05-14T04:56:55.919Z,9.83
2023-05-14T04:59:23.254Z,9.90
2023-05-14T05:01:51.708Z,10.02
2023-05-14T05:04:19.073Z,10.11
2023-05-14T05:06:46.374Z,10.16
2023-05-14T05:09:14.182Z,10.36
2023-05-14T05:11:41.473Z,10.57
2023-05-14T05:14:08.771Z,10.73
2023-05-14T05:16:36.187Z,10.91
2023-05-14T05:19:03.529Z,10.96
2023-05-14T05:21:30.839Z,11.14
2023-05-14T05:23:58.089Z,11.43
2023-05-14T05:26:26.855Z,11.48
2023-05-14T05:28:54.255Z,11.74
2023-05-14T05:31:21.576Z,11.80
2023-05-14T05:33:48.861Z,11.88
2023-05-14T05:36:16.136Z,11.87
2023-05-14T05:38:43.486Z,11.83
2023-05-14T05:41:10.754Z,11.87
2023-05-14T05:43:37.992Z,11.94
2023-05-14T05:46:05.525Z,12.12
2023-05-14T05:48:32.816Z,12.28
2023-05-14T05:51:00.147Z,12.44
2023-05-14T05:53:27.384Z,12.58
2023-05-14T05:55:54.643Z,12.79
2023-05-14T05:58:21.948Z,12.70
2023-05-14T06:00:49.243Z,12.68
2023-05-14T06:03:16.629Z,12.84
2023-05-14T06:05:43.968Z,12.68
2023-05-14T06:08:11.296Z,12.92
2023-05-14T06:10:38.657Z,12.78
2023-05-14T06:13:06.892Z,13.09
2023-05-14T06:15:34.259Z,13.17
2023-05-14T06:18:01.561Z,13.21
2023-05-14T06:20:28.962Z,13.36
2023-05-14T06:22:56.348Z,13.20
2023-05-14T06:25:23.710Z,13.09
2023-05-14T06:27:50.994Z,13.04
2023-05-14T06:30:18.276Z,13.05
2023-05-14T06:32:45.707Z,13.40
2023-05-14T06:35:13.001Z,13.64
2023-05-14T06:37:41.405Z,13.64
2023-05-14T06:40:09.036Z,13.60
2023-05-14T06:42:36.352Z,13.80
2023-05-14T06:45:06.045Z,13.93
2023-05-14T06:47:33.517Z,13.99
2023-05-14T06:50:01.979Z,14.20
2023-05-14T06:52:29.302Z,14.41
2023-05-14T06:54:56.530Z,14.39
2023-05-14T06:57:23.864Z,14.39
2023-05-14T06:59:51.106Z,14.15
2023-05-14T07:02:18.344Z,14.31
2023-05-14T07:04:46.653Z,14.37
2023-05-14T07:07:15.557Z,14.52
2023-05-14T07:09:42.825Z,14.25
2023-05-14T07:12:10.099Z,14.28
2023-05-14T07:14:37.694Z,14.49
2023-05-14T07:17:04.977Z,14.60
2023-05-14T07:19:32.323Z,14.69
2023-05-14T07:21:59.665Z,14.83
2023-05-14T07:24:27.017Z,14.99
2023-05-14T07:26:55.288Z,15.10
2023-05-14T07:29:22.673Z,14.91
2023-05-14T07:31:49.991Z,15.21
2023-05-14T07:34:17.359Z,15.32
2023-05-14T07:36:44.637Z,15.47
2023-05-14T07:39:11.910Z,15.31
2023-05-14T07:41:39.252Z,15.75
2023-05-14T07:44:06.528Z,15.77
2023-05-14T07:46:33.760Z,15.41
2023-05-14T07:49:01.026Z,15.61
2023-05-14T07:51:28.550Z,15.94
2023-05-14T07:53:55.902Z,15.38
2023-05-14T07:56:23.219Z,15.84
2023-05-14T07:58:51.137Z,16.00
2023-05-14T08:01:18.419Z,16.11
2023-05-14T08:03:45.893Z,15.90
2023-05-14T08:06:13.292Z,15.89
2023-05-14T08:08:40.932Z,16.16
2023-05-14T08:11:08.267Z,16.23
2023-05-14T08:13:35.543Z,16.40
2023-05-14T08:16:02.830Z,16.55
2023-05-14T08:18:30.134Z,16.52
2023-05-14T08:20:57.894Z,16.72
2023-05-14T08:23:25.381Z,16.69
2023-05-14T08:25:52.592Z,16.79
2023-05-14T08:28:20.058Z,16.63
2023-05-14T08:30:47.638Z,16.52
2023-05-14T08:33:14.997Z,16.61
2023-05-14T08:35:42.303Z,16.75
2023-05-14T08:38:09.570Z,17.07
2023-05-14T08:40:36.828Z,17.17
2023-05-14T08:43:04.086Z,17.14
2023-05-14T08:45:34.471Z,17.34
2023-05-14T08:48:02.120Z,17.61
2023-05-14T08:50:30.587Z,17.72
2023-05-14T08:52:58.213Z,17.20
2023-05-14T08:55:26.223Z,17.34
2023-05-14T08:57:53.787Z,17.63
2023-05-14T09:00:21.263Z,17.89
2023-05-14T09:02:48.629Z,17.93
2023-05-14T09:05:15.971Z,18.01
2023-05-14T09:07:43.205Z,17.88
2023-05-14T09:10:10.498Z,18.38
2023-05-14T09:12:37.776Z,18.45
2023-05-14T09:15:06.505Z,18.42
2023-05-14T09:17:33.880Z,18.56
2023-05-14T09:20:01.171Z,18.49
2023-05-14T09:22:29.237Z,18.84
2023-05-14T09:25:07.178Z,19.03
2023-05-14T09:27:34.470Z,18.97
2023-05-14T09:30:19.816Z,18.97
2023-05-14T09:32:49.165Z,19.22
2023-05-14T09:35:21.008Z,18.95
2023-05-14T09:37:52.491Z,19.10
2023-05-14T09:40:24.418Z,18.98
2023-05-14T09:42:52.285Z,19.32
2023-05-14T09:45:19.594Z,18.91
2023-05-14T09:47:46.969Z,18.86
2023-05-14T09:50:14.343Z,18.85
2023-05-14T09:52:42.088Z,18.93
2023-05-14T09:55:09.622Z,19.22
2023-05-14T09:57:37.275Z,19.49
2023-05-14T10:00:05.066Z,19.95
2023-05-14T10:02:41.158Z,20.40
2023-05-14T10:05:09.531Z,20.38
2023-05-14T10:07:42.734Z,20.66
2023-05-14T10:10:13.703Z,20.62
2023-05-14T10:12:40.991Z,20.31
2023-05-14T10:15:18.310Z,20.14
2023-05-14T10:18:03.212Z,20.08
2023-05-14T10:20:30.499Z,20.29
2023-05-14T10:22:58.478Z,20.36
2023-05-14T10:25:25.777Z,20.18
2023-05-14T10:27:53.288Z,20.00
2023-05-14T10:30:21.846Z,20.33
2023-05-14T10:32:49.208Z,20.48
2023-05-14T10:35:22.241Z,20.32
2023-05-14T10:37:51.240Z,20.25
2023-05-14T10:40:19.417Z,20.24
2023-05-14T10:42:46.971Z,20.08
2023-05-14T10:45:14.902Z,20.06
2023-05-14T10:47:43.411Z,20.13
2023-05-14T10:50:11.509Z,20.27
2023-05-14T10:52:40.823Z,20.34
2023-05-14T10:55:08.396Z,20.25
2023-05-14T10:57:37.814Z,20.10
2023-05-14T11:00:07.816Z,20.20
2023-05-14T11:02:38.347Z,20.11
2023-05-14T11:05:08.585Z,19.95
2023-05-14T11:07:37.984Z,19.86
2023-05-14T11:10:06.751Z,19.96
2023-05-14T11:12:34.790Z,20.04
2023-05-14T11:15:04.352Z,20.01
2023-05-14T11:17:31.796Z,19.84
2023-05-14T11:19:59.240Z,19.98
2023-05-14T11:22:26.682Z,19.91
2023-05-14T11:24:53.997Z,20.02
2023-05-14T11:27:21.655Z,19.88
2023-05-14T11:29:48.958Z,19.99
2023-05-14T11:32:16.711Z,20.16
2023-05-14T11:34:47.074Z,20.16
2023-05-14T11:37:15.323Z,20.32
2023-05-14T11:39:53.461Z,20.09
2023-05-14T11:42:21.452Z,19.92
2023-05-14T11:44:50.004Z,19.77
2023-05-14T11:47:18.408Z,19.73
2023-05-14T11:49:45.780Z,19.77
2023-05-14T11:52:16.330Z,19.77
2023-05-14T11:54:44.336Z,19.99
2023-05-14T11:57:13.575Z,19.73
2023-05-14T11:59:41.141Z,19.94
2023-05-14T12:02:18.085Z,20.05
2023-05-14T12:04:45.824Z,20.06
2023-05-14T12:07:15.040Z,19.97
2023-05-14T12:09:49.754Z,20.00
2023-05-14T12:12:23.240Z,19.97
2023-05-14T12:14:50.695Z,20.00
2023-05-14T12:17:19.576Z,19.93
2023-05-14T12:19:48.617Z,19.75
2023-05-14T12:22:18.421Z,19.81
2023-05-14T12:24:55.394Z,19.74
2023-05-14T12:27:24.552Z,19.80
2023-05-14T12:30:20.060Z,19.83
2023-05-14T12:32:52.740Z,19.75
2023-05-14T12:35:21.547Z,19.86
2023-05-14T12:37:49.007Z,19.63
2023-05-14T12:40:16.308Z,19.70
2023-05-14T12:42:43.591Z,19.61
2023-05-14T12:45:11.447Z,19.50
2023-05-14T12:47:38.895Z,19.43
2023-05-14T12:50:06.993Z,19.57
2023-05-14T12:52:38.850Z,19.57
2023-05-14T12:55:08.956Z,19.69
2023-05-14T12:57:37.157Z,19.39
2023-05-14T13:00:08.505Z,19.45
2023-05-14T13:02:42.752Z,19.36
2023-05-14T13:05:11.778Z,19.18
2023-05-14T13:07:39.265Z,19.20
2023-05-14T13:10:07.138Z,19.10
2023-05-14T13:12:34.538Z,19.09
2023-05-14T13:15:01.948Z,18.94
2023-05-14T13:17:29.316Z,18.90
2023-05-14T13:19:56.624Z,18.70
2023-05-14T13:22:23.897Z,18.82
2023-05-14T13:24:51.123Z,18.80
2023-05-14T13:27:18.392Z,18.69
2023-05-14T13:29:45.670Z,18.75
2023-05-14T13:32:12.957Z,18.76
2023-05-14T13:34:40.267Z,18.52
2023-05-14T13:37:07.585Z,18.45
2023-05-14T13:39:34.955Z,18.59
2023-05-14T13:42:02.349Z,18.50
2023-05-14T13:44:29.605Z,18.48
2023-05-14T13:46:56.936Z,18.53
2023-05-14T13:49:24.202Z,18.45
2023-05-14T13:51:51.493Z,18.33
2023-05-14T13:54:18.722Z,18.29
2023-05-14T13:56:46.031Z,18.28
2023-05-14T13:59:13.302Z,18.36
2023-05-14T14:01:40.563Z,18.26
2023-05-14T14:04:07.828Z,18.27
2023-05-14T14:06:35.069Z,18.23
2023-05-14T14:09:02.342Z,18.09
2023-05-14T14:11:29.639Z,18.02
2023-05-14T14:13:56.898Z,17.96
2023-05-14T14:16:24.218Z,17.93
2023-05-14T14:18:51.512Z,17.76
2023-05-14T14:21:20.803Z,17.79
2023-05-14T14:23:48.253Z,17.65
2023-05-14T14:26:15.822Z,17.59
2023-05-14T14:28:43.248Z,17.48
2023-05-14T14:31:11.090Z,17.32
2023-05-14T14:33:38.500Z,17.34
2023-05-14T14:36:06.244Z,17.26
2023-05-14T14:38:33.531Z,17.19
2023-05-14T14:41:03.224Z,17.11
2023-05-14T14:43:30.661Z,17.17
2023-05-14T14:45:58.100Z,17.09
2023-05-14T14:48:34.044Z,16.75
2023-05-14T14:51:01.636Z,16.54
2023-05-14T14:53:28.968Z,16.55
2023-05-14T14:55:56.450Z,16.47
2023-05-14T14:58:23.904Z,16.35
2023-05-14T15:00:52.081Z,16.30
2023-05-14T15:03:19.599Z,16.18
2023-05-14T15:05:47.215Z,16.19
2023-05-14T15:08:14.681Z,16.12
2023-05-14T15:10:41.998Z,15.96
2023-05-14T15:13:09.272Z,15.83
2023-05-14T15:15:37.452Z,15.70
2023-05-14T15:18:04.974Z,15.67
2023-05-14T15:20:32.322Z,15.49
2023-05-14T15:22:59.585Z,15.43
2023-05-14T15:25:27.081Z,15.35
2023-05-14T15:27:54.459Z,15.34
2023-05-14T15:30:21.842Z,15.22
2023-05-14T15:32:49.155Z,15.12
2023-05-14T15:35:16.657Z,15.14
2023-05-14T15:37:44.665Z,15.16
2023-05-14T15:40:12.582Z,15.11
2023-05-14T15:42:42.537Z,14.97
2023-05-14T15:45:10.985Z,14.88
2023-05-14T15:47:38.359Z,14.84
2023-05-14T15:50:06.465Z,14.80
2023-05-14T15:52:34.170Z,14.73
2023-05-14T15:55:01.463Z,14.76
2023-05-14T15:57:28.811Z,14.81
2023-05-14T15:59:56.927Z,14.81
2023-05-14T16:02:24.313Z,14.77
2023-05-14T16:04:51.687Z,14.72
2023-05-14T16:07:19.057Z,14.74
2023-05-14T16:09:46.368Z,14.78
2023-05-14T16:12:14.418Z,14.75
2023-05-14T16:14:42.162Z,14.71
2023-05-14T16:17:09.489Z,14.70
2023-05-14T16:19:39.583Z,14.54
2023-05-14T16:22:06.905Z,14.49
2023-05-14T16:24:34.230Z,14.55
2023-05-14T16:27:01.603Z,14.24
2023-05-14T16:29:28.872Z,14.36
2023-05-14T16:31:56.300Z,14.27
2023-05-14T16:34:23.583Z,14.13
2023-05-14T16:36:51.021Z,14.04
2023-05-14T16:39:18.373Z,13.97
2023-05-14T16:41:45.631Z,14.00
2023-05-14T16:44:12.934Z,13.92
2023-05-14T16:46:40.345Z,13.85
2023-05-14T16:49:07.653Z,13.85
2023-05-14T16:51:35.042Z,13.95
2023-05-14T16:54:02.340Z,13.87
2023-05-14T16:56:30.389Z,13.88
2023-05-14T16:58:57.860Z,13.89
2023-05-14T17:01:25.629Z,13.81
2023-05-14T17:03:52.932Z,13.75
2023-05-14T17:06:20.354Z,13.79
2023-05-14T17:08:47.687Z,13.74
2023-05-14T17:11:15.054Z,13.67
2023-05-14T17:13:42.384Z,13.72
2023-05-14T17:16:09.684Z,13.67
2023-05-14T17:18:38.080Z,13.65
2023-05-14T17:21:07.542Z,13.52
2023-05-14T17:23:34.978Z,13.43
2023-05-14T17:26:02.525Z,13.46
2023-05-14T17:28:30.138Z,13.40
2023-05-14T17:30:57.503Z,13.40
2023-05-14T17:33:24.887Z,13.36
2023-05-14T17:35:52.223Z,13.43
2023-05-14T17:38:19.624Z,13.41
2023-05-14T17:40:46.911Z,13.40
2023-05-14T17:43:14.331Z,13.39
2023-05-14T17:45:53.030Z,13.41
2023-05-14T17:48:24.198Z,13.35
2023-05-14T17:50:54.543Z,13.41
2023-05-14T17:53:21.883Z,13.36
2023-05-14T17:55:50.160Z,13.45
2023-05-14T17:58:17.513Z,13.46
2023-05-14T18:00:44.897Z,13.35
2023-05-14T18:03:14.162Z,13.30
2023-05-14T18:05:41.621Z,13.28
2023-05-14T18:08:09.637Z,13.30
2023-05-14T18:10:36.916Z,13.21
2023-05-14T18:13:04.227Z,13.21
2023-05-14T18:15:31.673Z,13.19
2023-05-14T18:17:59.132Z,13.13
2023-05-14T18:20:26.525Z,13.10
2023-05-14T18:22:53.860Z,13.09
2023-05-14T18:25:21.136Z,13.05
2023-05-14T18:27:48.467Z,13.14
2023-05-14T18:30:16.008Z,13.08
2023-05-14T18:32:45.762Z,13.02
2023-05-14T18:35:13.287Z,13.01
2023-05-14T18:37:41.091Z,13.13
2023-05-14T18:40:08.957Z,13.14
2023-05-14T18:42:36.227Z,13.09
2023-05-14T18:45:04.242Z,13.05
2023-05-14T18:47:32.250Z,12.99
2023-05-14T18:50:01.920Z,13.00
2023-05-14T18:52:29.554Z,12.98
2023-05-14T18:54:56.962Z,13.04
2023-05-14T18:57:24.233Z,13.07
2023-05-14T18:59:51.477Z,13.05
2023-05-14T19:02:18.844Z,12.99
2023-05-14T19:07:16.820Z,13.04
2023-05-14T19:09:44.154Z,13.06
2023-05-14T19:12:11.506Z,13.12
2023-05-14T19:14:38.794Z,13.13
2023-05-14T19:17:06.093Z,13.13
2023-05-14T19:19:33.362Z,13.10
2023-05-14T19:22:00.646Z,13.08
2023-05-14T19:24:27.942Z,13.01
2023-05-14T19:26:55.648Z,13.04
2023-05-14T19:29:22.908Z,13.01
2023-05-14T19:31:50.295Z,12.91
2023-05-14T19:34:17.602Z,12.98
2023-05-14T19:36:44.953Z,13.05
2023-05-14T19:39:13.278Z,13.07
2023-05-14T19:41:40.744Z,13.02
2023-05-14T19:44:08.017Z,12.97
2023-05-14T19:46:35.402Z,13.06
2023-05-14T19:49:02.678Z,13.03
2023-05-14T19:51:29.997Z,12.99
2023-05-14T19:53:57.306Z,13.02
2023-05-14T19:56:26.424Z,12.99
2023-05-14T19:58:54.650Z,13.02
2023-05-14T20:01:22.102Z,13.02
2023-05-14T20:03:49.504Z,12.98
2023-05-14T20:06:17.597Z,13.00
2023-05-14T20:08:47.818Z,12.90
2023-05-14T20:11:15.833Z,12.97
2023-05-14T20:13:43.239Z,12.99
2023-05-14T20:16:10.625Z,13.06
2023-05-14T20:18:37.935Z,12.95
2023-05-14T20:21:05.583Z,12.92
2023-05-14T20:23:33.698Z,12.92
2023-05-14T20:26:04.131Z,12.97
2023-05-14T20:28:31.451Z,12.94
2023-05-14T20:30:59.067Z,12.95
2023-05-14T20:33:27.096Z,12.92
2023-05-14T20:35:54.415Z,12.82
2023-05-14T20:38:21.993Z,12.88
2023-05-14T20:40:49.342Z,12.83
2023-05-14T20:43:16.717Z,12.92
2023-05-14T20:45:43.996Z,12.95
2023-05-14T20:48:15.059Z,12.87
2023-05-14T20:50:42.962Z,12.81
2023-05-14T20:53:10.401Z,12.77
2023-05-14T20:55:37.709Z,12.78
2023-05-14T20:58:05.052Z,12.82
2023-05-14T21:00:32.387Z,12.83
2023-05-14T21:03:00.455Z,12.82
2023-05-14T21:05:28.066Z,12.69
2023-05-14T21:07:55.419Z,12.81
2023-05-14T21:10:22.963Z,12.85
2023-05-14T21:12:50.255Z,12.83
2023-05-14T21:15:17.535Z,12.84
2023-05-14T21:17:45.017Z,12.75
2023-05-14T21:20:13.608Z,12.86
2023-05-14T21:22:40.920Z,12.81
2023-05-14T21:25:08.664Z,12.81
2023-05-14T21:27:35.954Z,12.84
2023-05-14T21:30:03.316Z,12.86
2023-05-14T21:32:30.702Z,12.84
2023-05-14T21:34:58.116Z,12.75
2023-05-14T21:37:25.354Z,12.66
2023-05-14T21:39:52.646Z,12.71
2023-05-14T21:42:21.120Z,12.69
2023-05-14T21:44:48.447Z,12.71
2023-05-14T21:47:16.184Z,12.56
2023-05-14T21:49:43.720Z,12.67
2023-05-14T21:52:11.305Z,12.65
2023-05-14T21:54:38.622Z,12.64
2023-05-14T21:57:06.466Z,12.65
2023-05-14T21:59:33.992Z,12.69
2023-05-14T22:04:31.509Z,12.84
2023-05-14T22:06:58.789Z,12.75
2023-05-14T22:09:26.440Z,12.73
2023-05-14T22:11:53.730Z,12.71
2023-05-14T22:14:20.993Z,12.78
2023-05-14T22:16:48.470Z,12.80
2023-05-14T22:19:16.661Z,12.83
2023-05-14T22:21:44.014Z,12.73
2023-05-14T22:24:11.258Z,12.81
2023-05-14T22:26:38.511Z,12.85
2023-05-14T22:29:05.782Z,12.83
2023-05-14T22:31:33.181Z,12.79
2023-05-14T22:34:00.493Z,12.89
2023-05-14T22:36:27.904Z,12.80
2023-05-14T22:38:55.256Z,12.75
2023-05-14T22:41:22.548Z,12.78
2023-05-14T22:43:50.923Z,12.74
2023-05-14T22:46:18.421Z,12.68
2023-05-14T22:48:46.135Z,12.70
2023-05-14T22:51:13.424Z,12.74
2023-05-14T22:53:40.683Z,12.72
2023-05-14T22:56:08.035Z,12.71
2023-05-14T22:58:35.656Z,12.62
2023-05-14T23:01:03.356Z,12.67
2023-05-14T23:03:30.846Z,12.71
2023-05-14T23:05:58.220Z,12.70
2023-05-14T23:08:25.663Z,12.71
2023-05-14T23:10:53.068Z,12.66
2023-05-14T23:13:20.506Z,12.71
2023-05-14T23:15:48.851Z,12.65
2023-05-14T23:18:16.273Z,12.71
2023-05-14T23:20:43.885Z,12.70
2023-05-14T23:23:11.354Z,12.65
2023-05-14T23:25:38.692Z,12.72
2023-05-14T23:28:06.337Z,12.75
2023-05-14T23:30:33.643Z,12.74
2023-05-14T23:33:01.048Z,12.70
2023-05-14T23:35:28.393Z,12.61
2023-05-14T23:37:55.689Z,12.69
2023-05-14T23:40:22.999Z,12.73
2023-05-14T23:42:50.699Z,12.70
2023-05-14T23:45:18.037Z,12.65
2023-05-14T23:47:45.457Z,12.59
2023-05-14T23:50:12.750Z,12.56
2023-05-14T23:52:40.317Z,12.62
2023-05-14T23:55:07.891Z,12.57
2023-05-14T23:57:35.497Z,12.49
